sensor_id;sensor_type;location;lat;lon;timestamp;temperature;humidity
8557;DHT22;4316;53.840;10.762;2023-02-24T00:01:34;4.70;99.90
8557;DHT22;4316;53.840;10.762;2023-02-24T00:04:08;4.80;99.90
8557;DHT22;4316;53.840;10.762;2023-02-24T00:06:37;4.80;99.90
8557;DHT22;4316;53.840;10.762;2023-02-24T00:09:22;4.80;99.90
8557;DHT22;4316;53.840;10.762;2023-02-24T00:11:56;4.80;99.90
8557;DHT22;4316;53.840;10.762;2023-02-24T00:14:25;4.80;99.90
8557;DHT22;4316;53.840;10.762;2023-02-24T00:16:51;4.90;99.90
8557;DHT22;4316;53.840;10.762;2023-02-24T00:19:20;4.80;99.90
8557;DHT22;4316;53.840;10.762;2023-02-24T00:21:47;4.80;99.90
8557;DHT22;4316;53.840;10.762;2023-02-24T00:24:13;4.80;99.90
8557;DHT22;4316;53.840;10.762;2023-02-24T00:26:40;4.80;99.90
8557;DHT22;4316;53.840;10.762;2023-02-24T00:29:08;4.80;99.90
8557;DHT22;4316;53.840;10.762;2023-02-24T00:31:35;4.80;99.90
8557;DHT22;4316;53.840;10.762;2023-02-24T00:34:05;4.80;99.90
8557;DHT22;4316;53.840;10.762;2023-02-24T00:36:31;5.10;99.90
8557;DHT22;4316;53.840;10.762;2023-02-24T00:39:01;4.80;99.90
8557;DHT22;4316;53.840;10.762;2023-02-24T00:41:34;4.80;99.90
8557;DHT22;4316;53.840;10.762;2023-02-24T00:44:03;4.80;99.90
8557;DHT22;4316;53.840;10.762;2023-02-24T00:46:41;4.70;99.90
8557;DHT22;4316;53.840;10.762;2023-02-24T00:49:11;4.70;99.90
8557;DHT22;4316;53.840;10.762;2023-02-24T00:51:39;4.70;99.90
8557;DHT22;4316;53.840;10.762;2023-02-24T00:54:06;4.70;99.90
8557;DHT22;4316;53.840;10.762;2023-02-24T00:56:32;4.70;99.90
8557;DHT22;4316;53.840;10.762;2023-02-24T00:58:59;4.70;99.90
8557;DHT22;4316;53.840;10.762;2023-02-24T01:01:30;4.70;99.90
8557;DHT22;4316;53.840;10.762;2023-02-24T01:04:00;4.70;99.90
8557;DHT22;4316;53.840;10.762;2023-02-24T01:06:37;4.70;99.90
8557;DHT22;4316;53.840;10.762;2023-02-24T01:09:04;4.70;99.90
8557;DHT22;4316;53.840;10.762;2023-02-24T01:11:34;4.70;99.90
8557;DHT22;4316;53.840;10.762;2023-02-24T01:14:22;4.80;99.90
8557;DHT22;4316;53.840;10.762;2023-02-24T01:16:49;4.80;99.90
8557;DHT22;4316;53.840;10.762;2023-02-24T01:19:25;4.80;99.90
8557;DHT22;4316;53.840;10.762;2023-02-24T01:22:00;4.80;99.90
8557;DHT22;4316;53.840;10.762;2023-02-24T01:24:29;4.80;99.90
8557;DHT22;4316;53.840;10.762;2023-02-24T01:26:55;4.80;99.90
8557;DHT22;4316;53.840;10.762;2023-02-24T01:29:21;4.70;99.90
8557;DHT22;4316;53.840;10.762;2023-02-24T01:31:48;4.70;99.90
8557;DHT22;4316;53.840;10.762;2023-02-24T01:34:16;4.70;99.90
8557;DHT22;4316;53.840;10.762;2023-02-24T01:36:42;4.70;99.90
8557;DHT22;4316;53.840;10.762;2023-02-24T01:39:09;4.70;99.90
8557;DHT22;4316;53.840;10.762;2023-02-24T01:41:38;4.70;99.90
8557;DHT22;4316;53.840;10.762;2023-02-24T01:46:44;4.70;99.90
8557;DHT22;4316;53.840;10.762;2023-02-24T01:49:29;4.70;99.90
8557;DHT22;4316;53.840;10.762;2023-02-24T01:54:43;4.70;99.90
8557;DHT22;4316;53.840;10.762;2023-02-24T01:57:13;4.60;99.90
8557;DHT22;4316;53.840;10.762;2023-02-24T01:59:43;4.60;99.90
8557;DHT22;4316;53.840;10.762;2023-02-24T02:02:10;4.60;99.90
8557;DHT22;4316;53.840;10.762;2023-02-24T02:04:51;4.60;99.90
8557;DHT22;4316;53.840;10.762;2023-02-24T02:07:20;4.60;99.90
8557;DHT22;4316;53.840;10.762;2023-02-24T02:09:48;4.70;99.90
8557;DHT22;4316;53.840;10.762;2023-02-24T02:12:14;4.70;99.90
8557;DHT22;4316;53.840;10.762;2023-02-24T02:14:51;4.70;99.90
8557;DHT22;4316;53.840;10.762;2023-02-24T02:38:00;4.50;99.90
8557;DHT22;4316;53.840;10.762;2023-02-24T02:40:09;4.60;99.90
8557;DHT22;4316;53.840;10.762;2023-02-24T02:45:44;4.60;99.90
8557;DHT22;4316;53.840;10.762;2023-02-24T02:50:44;4.60;99.90
8557;DHT22;4316;53.840;10.762;2023-02-24T02:53:24;4.60;99.90
8557;DHT22;4316;53.840;10.762;2023-02-24T02:55:58;4.60;99.90
8557;DHT22;4316;53.840;10.762;2023-02-24T02:58:30;4.60;99.90
8557;DHT22;4316;53.840;10.762;2023-02-24T03:01:00;4.70;99.90
8557;DHT22;4316;53.840;10.762;2023-02-24T03:03:33;4.70;99.90
8557;DHT22;4316;53.840;10.762;2023-02-24T03:06:03;4.60;99.90
8557;DHT22;4316;53.840;10.762;2023-02-24T03:08:34;4.60;99.90
8557;DHT22;4316;53.840;10.762;2023-02-24T03:11:03;4.60;99.90
8557;DHT22;4316;53.840;10.762;2023-02-24T03:13:36;4.60;99.90
8557;DHT22;4316;53.840;10.762;2023-02-24T03:16:04;4.50;99.90
8557;DHT22;4316;53.840;10.762;2023-02-24T03:18:44;4.50;99.90
8557;DHT22;4316;53.840;10.762;2023-02-24T03:21:29;4.50;99.90
8557;DHT22;4316;53.840;10.762;2023-02-24T03:23:58;4.50;99.90
8557;DHT22;4316;53.840;10.762;2023-02-24T03:26:29;4.50;99.90
8557;DHT22;4316;53.840;10.762;2023-02-24T03:29:07;4.50;99.90
8557;DHT22;4316;53.840;10.762;2023-02-24T03:37:11;4.40;99.90
8557;DHT22;4316;53.840;10.762;2023-02-24T03:39:38;4.40;99.90
8557;DHT22;4316;53.840;10.762;2023-02-24T03:42:16;4.40;99.90
8557;DHT22;4316;53.840;10.762;2023-02-24T03:44:43;4.40;99.90
8557;DHT22;4316;53.840;10.762;2023-02-24T03:47:12;4.40;99.90
8557;DHT22;4316;53.840;10.762;2023-02-24T03:49:38;4.40;99.90
8557;DHT22;4316;53.840;10.762;2023-02-24T04:09:14;4.40;99.90
8557;DHT22;4316;53.840;10.762;2023-02-24T04:11:56;4.40;99.90
8557;DHT22;4316;53.840;10.762;2023-02-24T04:14:32;4.40;99.90
8557;DHT22;4316;53.840;10.762;2023-02-24T04:17:12;4.30;99.90
8557;DHT22;4316;53.840;10.762;2023-02-24T04:19:41;4.30;99.90
8557;DHT22;4316;53.840;10.762;2023-02-24T04:22:11;4.30;99.90
8557;DHT22;4316;53.840;10.762;2023-02-24T04:24:42;4.30;99.90
8557;DHT22;4316;53.840;10.762;2023-02-24T04:27:11;4.30;99.90
8557;DHT22;4316;53.840;10.762;2023-02-24T04:29:47;4.40;99.90
8557;DHT22;4316;53.840;10.762;2023-02-24T04:32:18;4.40;99.90
8557;DHT22;4316;53.840;10.762;2023-02-24T04:34:46;4.40;99.90
8557;DHT22;4316;53.840;10.762;2023-02-24T04:37:11;4.40;99.90
8557;DHT22;4316;53.840;10.762;2023-02-24T04:39:38;4.40;99.90
8557;DHT22;4316;53.840;10.762;2023-02-24T04:42:08;4.30;99.90
8557;DHT22;4316;53.840;10.762;2023-02-24T04:44:35;4.30;99.90
8557;DHT22;4316;53.840;10.762;2023-02-24T04:47:01;4.30;99.90
8557;DHT22;4316;53.840;10.762;2023-02-24T04:49:28;4.30;99.90
8557;DHT22;4316;53.840;10.762;2023-02-24T04:51:54;4.40;99.90
8557;DHT22;4316;53.840;10.762;2023-02-24T04:54:21;4.40;99.90
8557;DHT22;4316;53.840;10.762;2023-02-24T04:56:50;4.40;99.90
8557;DHT22;4316;53.840;10.762;2023-02-24T04:59:17;4.40;99.90
8557;DHT22;4316;53.840;10.762;2023-02-24T05:01:44;4.40;99.90
8557;DHT22;4316;53.840;10.762;2023-02-24T05:04:11;4.40;99.90
8557;DHT22;4316;53.840;10.762;2023-02-24T05:06:42;4.40;99.90
8557;DHT22;4316;53.840;10.762;2023-02-24T05:09:13;4.40;99.90
8557;DHT22;4316;53.840;10.762;2023-02-24T05:11:44;4.40;99.90
8557;DHT22;4316;53.840;10.762;2023-02-24T05:14:11;4.40;99.90
8557;DHT22;4316;53.840;10.762;2023-02-24T05:16:46;4.40;99.90
8557;DHT22;4316;53.840;10.762;2023-02-24T05:19:14;4.40;99.90
8557;DHT22;4316;53.840;10.762;2023-02-24T05:22:00;4.40;99.90
8557;DHT22;4316;53.840;10.762;2023-02-24T05:24:29;4.40;99.90
8557;DHT22;4316;53.840;10.762;2023-02-24T05:26:56;4.40;99.90
8557;DHT22;4316;53.840;10.762;2023-02-24T05:29:31;4.40;99.90
8557;DHT22;4316;53.840;10.762;2023-02-24T05:31:58;4.40;99.90
8557;DHT22;4316;53.840;10.762;2023-02-24T05:34:29;4.40;99.90
8557;DHT22;4316;53.840;10.762;2023-02-24T05:36:59;4.40;99.90
8557;DHT22;4316;53.840;10.762;2023-02-24T05:39:26;4.40;99.90
8557;DHT22;4316;53.840;10.762;2023-02-24T05:41:53;4.40;99.90
8557;DHT22;4316;53.840;10.762;2023-02-24T05:44:23;4.40;99.90
8557;DHT22;4316;53.840;10.762;2023-02-24T05:46:54;4.40;99.90
8557;DHT22;4316;53.840;10.762;2023-02-24T05:49:31;4.40;99.90
8557;DHT22;4316;53.840;10.762;2023-02-24T05:52:00;4.40;99.90
8557;DHT22;4316;53.840;10.762;2023-02-24T05:54:47;4.40;99.90
8557;DHT22;4316;53.840;10.762;2023-02-24T05:57:18;4.40;99.90
8557;DHT22;4316;53.840;10.762;2023-02-24T05:59:48;4.40;99.90
8557;DHT22;4316;53.840;10.762;2023-02-24T06:02:16;4.40;99.90
8557;DHT22;4316;53.840;10.762;2023-02-24T06:04:47;4.40;99.90
8557;DHT22;4316;53.840;10.762;2023-02-24T06:07:26;4.50;99.90
8557;DHT22;4316;53.840;10.762;2023-02-24T06:09:54;4.50;99.90
8557;DHT22;4316;53.840;10.762;2023-02-24T06:12:27;4.50;99.90
8557;DHT22;4316;53.840;10.762;2023-02-24T06:14:53;4.50;99.90
8557;DHT22;4316;53.840;10.762;2023-02-24T06:17:20;4.40;99.90
8557;DHT22;4316;53.840;10.762;2023-02-24T06:19:49;4.40;99.90
8557;DHT22;4316;53.840;10.762;2023-02-24T06:22:18;4.40;99.90
8557;DHT22;4316;53.840;10.762;2023-02-24T06:24:45;4.30;99.90
8557;DHT22;4316;53.840;10.762;2023-02-24T06:27:12;4.30;99.90
8557;DHT22;4316;53.840;10.762;2023-02-24T06:29:53;4.30;99.90
8557;DHT22;4316;53.840;10.762;2023-02-24T06:32:22;4.30;99.90
8557;DHT22;4316;53.840;10.762;2023-02-24T06:34:48;4.30;99.90
8557;DHT22;4316;53.840;10.762;2023-02-24T06:37:14;4.30;99.90
8557;DHT22;4316;53.840;10.762;2023-02-24T06:39:40;4.20;99.90
8557;DHT22;4316;53.840;10.762;2023-02-24T06:42:06;4.20;99.90
8557;DHT22;4316;53.840;10.762;2023-02-24T06:44:38;4.20;99.90
8557;DHT22;4316;53.840;10.762;2023-02-24T06:47:05;4.10;99.90
8557;DHT22;4316;53.840;10.762;2023-02-24T06:49:31;4.10;99.90
8557;DHT22;4316;53.840;10.762;2023-02-24T06:51:57;4.10;99.90
8557;DHT22;4316;53.840;10.762;2023-02-24T06:54:24;4.20;99.90
8557;DHT22;4316;53.840;10.762;2023-02-24T06:56:54;4.10;99.90
8557;DHT22;4316;53.840;10.762;2023-02-24T06:59:19;4.10;99.90
8557;DHT22;4316;53.840;10.762;2023-02-24T07:01:54;4.10;99.90
8557;DHT22;4316;53.840;10.762;2023-02-24T07:04:20;4.00;99.90
8557;DHT22;4316;53.840;10.762;2023-02-24T07:06:54;4.00;99.90
8557;DHT22;4316;53.840;10.762;2023-02-24T07:09:23;3.90;99.90
8557;DHT22;4316;53.840;10.762;2023-02-24T07:11:52;3.90;99.90
8557;DHT22;4316;53.840;10.762;2023-02-24T07:14:24;3.90;99.90
8557;DHT22;4316;53.840;10.762;2023-02-24T07:16:50;3.90;99.90
8557;DHT22;4316;53.840;10.762;2023-02-24T07:19:23;3.90;99.90
8557;DHT22;4316;53.840;10.762;2023-02-24T07:21:49;3.90;99.90
8557;DHT22;4316;53.840;10.762;2023-02-24T07:24:19;3.80;99.90
8557;DHT22;4316;53.840;10.762;2023-02-24T07:26:59;3.90;99.90
8557;DHT22;4316;53.840;10.762;2023-02-24T07:29:27;3.80;99.90
8557;DHT22;4316;53.840;10.762;2023-02-24T07:31:54;3.80;99.90
8557;DHT22;4316;53.840;10.762;2023-02-24T07:34:23;3.70;99.90
8557;DHT22;4316;53.840;10.762;2023-02-24T07:36:53;3.80;99.90
8557;DHT22;4316;53.840;10.762;2023-02-24T07:39:21;3.70;99.90
8557;DHT22;4316;53.840;10.762;2023-02-24T07:41:48;3.70;99.90
8557;DHT22;4316;53.840;10.762;2023-02-24T07:44:16;3.70;99.90
8557;DHT22;4316;53.840;10.762;2023-02-24T07:46:43;3.80;99.90
8557;DHT22;4316;53.840;10.762;2023-02-24T07:49:18;3.70;99.90
8557;DHT22;4316;53.840;10.762;2023-02-24T07:51:45;3.70;99.90
8557;DHT22;4316;53.840;10.762;2023-02-24T07:54:12;3.70;99.90
8557;DHT22;4316;53.840;10.762;2023-02-24T07:56:40;3.70;99.90
8557;DHT22;4316;53.840;10.762;2023-02-24T07:59:12;3.80;99.90
8557;DHT22;4316;53.840;10.762;2023-02-24T08:01:43;3.70;99.90
8557;DHT22;4316;53.840;10.762;2023-02-24T08:04:19;3.70;99.90
8557;DHT22;4316;53.840;10.762;2023-02-24T08:06:45;3.70;99.90
8557;DHT22;4316;53.840;10.762;2023-02-24T08:09:19;3.60;99.90
8557;DHT22;4316;53.840;10.762;2023-02-24T08:14:22;3.60;99.90
8557;DHT22;4316;53.840;10.762;2023-02-24T08:16:52;3.70;99.90
8557;DHT22;4316;53.840;10.762;2023-02-24T08:19:26;3.70;99.90
8557;DHT22;4316;53.840;10.762;2023-02-24T08:21:58;3.60;99.90
8557;DHT22;4316;53.840;10.762;2023-02-24T08:24:49;3.60;99.90
8557;DHT22;4316;53.840;10.762;2023-02-24T08:27:20;3.60;99.90
8557;DHT22;4316;53.840;10.762;2023-02-24T08:29:48;3.60;99.90
8557;DHT22;4316;53.840;10.762;2023-02-24T08:32:31;3.60;99.90
8557;DHT22;4316;53.840;10.762;2023-02-24T08:35:09;3.60;99.90
8557;DHT22;4316;53.840;10.762;2023-02-24T08:37:45;3.60;99.90
8557;DHT22;4316;53.840;10.762;2023-02-24T08:40:24;3.60;99.90
8557;DHT22;4316;53.840;10.762;2023-02-24T08:43:01;3.60;99.90
8557;DHT22;4316;53.840;10.762;2023-02-24T08:48:48;3.50;99.90
8557;DHT22;4316;53.840;10.762;2023-02-24T08:51:32;3.60;99.90
8557;DHT22;4316;53.840;10.762;2023-02-24T08:54:07;3.50;99.90
8557;DHT22;4316;53.840;10.762;2023-02-24T08:56:36;3.50;99.90
8557;DHT22;4316;53.840;10.762;2023-02-24T08:59:09;3.50;99.90
8557;DHT22;4316;53.840;10.762;2023-02-24T09:01:57;3.60;99.90
8557;DHT22;4316;53.840;10.762;2023-02-24T09:04:44;3.60;99.90
8557;DHT22;4316;53.840;10.762;2023-02-24T09:07:25;3.60;99.90
8557;DHT22;4316;53.840;10.762;2023-02-24T09:09:53;3.50;99.90
8557;DHT22;4316;53.840;10.762;2023-02-24T09:12:22;3.60;99.90
8557;DHT22;4316;53.840;10.762;2023-02-24T09:15:01;3.60;99.90
8557;DHT22;4316;53.840;10.762;2023-02-24T09:17:32;3.60;99.90
8557;DHT22;4316;53.840;10.762;2023-02-24T09:20:27;3.60;99.90
8557;DHT22;4316;53.840;10.762;2023-02-24T09:23:12;3.60;99.90
8557;DHT22;4316;53.840;10.762;2023-02-24T09:25:45;3.60;99.90
8557;DHT22;4316;53.840;10.762;2023-02-24T09:28:19;3.60;99.90
8557;DHT22;4316;53.840;10.762;2023-02-24T09:33:29;3.70;99.90
8557;DHT22;4316;53.840;10.762;2023-02-24T09:36:23;3.70;99.90
8557;DHT22;4316;53.840;10.762;2023-02-24T09:38:59;3.70;99.90
8557;DHT22;4316;53.840;10.762;2023-02-24T09:41:48;3.80;99.90
8557;DHT22;4316;53.840;10.762;2023-02-24T09:44:42;3.70;99.90
8557;DHT22;4316;53.840;10.762;2023-02-24T09:47:13;3.70;99.90
8557;DHT22;4316;53.840;10.762;2023-02-24T09:49:53;3.70;99.90
8557;DHT22;4316;53.840;10.762;2023-02-24T09:52:24;3.80;99.90
8557;DHT22;4316;53.840;10.762;2023-02-24T09:58:05;3.80;99.90
8557;DHT22;4316;53.840;10.762;2023-02-24T10:03:34;3.80;99.90
8557;DHT22;4316;53.840;10.762;2023-02-24T10:06:18;3.90;99.90
8557;DHT22;4316;53.840;10.762;2023-02-24T10:08:59;3.90;99.90
8557;DHT22;4316;53.840;10.762;2023-02-24T10:11:44;3.90;99.90
8557;DHT22;4316;53.840;10.762;2023-02-24T10:14:30;4.10;99.90
8557;DHT22;4316;53.840;10.762;2023-02-24T10:17:20;4.20;99.90
8557;DHT22;4316;53.840;10.762;2023-02-24T10:19:50;4.20;99.90
8557;DHT22;4316;53.840;10.762;2023-02-24T10:22:43;4.20;99.90
8557;DHT22;4316;53.840;10.762;2023-02-24T10:25:37;4.20;99.90
8557;DHT22;4316;53.840;10.762;2023-02-24T10:28:25;4.20;99.90
8557;DHT22;4316;53.840;10.762;2023-02-24T10:31:02;4.30;99.90
8557;DHT22;4316;53.840;10.762;2023-02-24T10:33:45;4.30;99.90
8557;DHT22;4316;53.840;10.762;2023-02-24T10:36:17;4.30;99.90
8557;DHT22;4316;53.840;10.762;2023-02-24T10:38:44;4.30;99.90
8557;DHT22;4316;53.840;10.762;2023-02-24T10:41:11;4.30;99.90
8557;DHT22;4316;53.840;10.762;2023-02-24T10:43:37;4.30;99.90
8557;DHT22;4316;53.840;10.762;2023-02-24T10:46:22;4.30;99.90
8557;DHT22;4316;53.840;10.762;2023-02-24T10:48:56;4.40;99.90
8557;DHT22;4316;53.840;10.762;2023-02-24T10:51:33;4.40;99.90
8557;DHT22;4316;53.840;10.762;2023-02-24T10:54:22;4.40;99.90
8557;DHT22;4316;53.840;10.762;2023-02-24T10:57:07;4.40;99.90
8557;DHT22;4316;53.840;10.762;2023-02-24T10:59:57;4.40;99.90
8557;DHT22;4316;53.840;10.762;2023-02-24T11:02:51;4.40;99.90
8557;DHT22;4316;53.840;10.762;2023-02-24T11:05:23;4.40;99.90
8557;DHT22;4316;53.840;10.762;2023-02-24T11:08:04;4.40;99.90
8557;DHT22;4316;53.840;10.762;2023-02-24T11:10:38;4.40;99.90
8557;DHT22;4316;53.840;10.762;2023-02-24T11:13:18;4.40;99.90
8557;DHT22;4316;53.840;10.762;2023-02-24T11:16:03;4.50;99.90
8557;DHT22;4316;53.840;10.762;2023-02-24T11:18:50;4.40;99.90
8557;DHT22;4316;53.840;10.762;2023-02-24T11:21:17;4.50;99.90
8557;DHT22;4316;53.840;10.762;2023-02-24T11:23:56;4.50;99.90
8557;DHT22;4316;53.840;10.762;2023-02-24T11:26:30;4.60;99.90
8557;DHT22;4316;53.840;10.762;2023-02-24T11:37:35;4.70;99.90
8557;DHT22;4316;53.840;10.762;2023-02-24T11:40:23;4.70;99.90
8557;DHT22;4316;53.840;10.762;2023-02-24T11:43:12;4.70;99.90
8557;DHT22;4316;53.840;10.762;2023-02-24T11:45:50;4.70;99.90
8557;DHT22;4316;53.840;10.762;2023-02-24T11:48:23;4.70;99.90
8557;DHT22;4316;53.840;10.762;2023-02-24T11:50:55;4.80;99.90
8557;DHT22;4316;53.840;10.762;2023-02-24T11:55:59;4.80;99.90
8557;DHT22;4316;53.840;10.762;2023-02-24T11:58:56;4.80;99.90
8557;DHT22;4316;53.840;10.762;2023-02-24T12:07:05;4.90;99.90
8557;DHT22;4316;53.840;10.762;2023-02-24T12:09:37;4.90;99.90
8557;DHT22;4316;53.840;10.762;2023-02-24T12:12:16;4.90;99.90
8557;DHT22;4316;53.840;10.762;2023-02-24T12:14:54;5.00;99.90
8557;DHT22;4316;53.840;10.762;2023-02-24T12:25:12;5.10;99.90
8557;DHT22;4316;53.840;10.762;2023-02-24T12:30:54;5.20;99.90
8557;DHT22;4316;53.840;10.762;2023-02-24T12:33:41;5.20;99.90
8557;DHT22;4316;53.840;10.762;2023-02-24T12:41:51;5.30;99.90
8557;DHT22;4316;53.840;10.762;2023-02-24T12:45:00;5.30;99.90
8557;DHT22;4316;53.840;10.762;2023-02-24T12:47:41;5.40;99.90
8557;DHT22;4316;53.840;10.762;2023-02-24T12:56:12;5.70;99.90
8557;DHT22;4316;53.840;10.762;2023-02-24T12:58:42;5.70;99.90
8557;DHT22;4316;53.840;10.762;2023-02-24T13:01:31;5.70;99.90
8557;DHT22;4316;53.840;10.762;2023-02-24T13:04:10;5.60;99.90
8557;DHT22;4316;53.840;10.762;2023-02-24T13:09:17;5.60;99.90
8557;DHT22;4316;53.840;10.762;2023-02-24T13:14:38;5.60;99.90
8557;DHT22;4316;53.840;10.762;2023-02-24T13:19:38;5.70;99.90
8557;DHT22;4316;53.840;10.762;2023-02-24T13:25:09;5.90;99.90
8557;DHT22;4316;53.840;10.762;2023-02-24T13:27:39;6.10;99.90
8557;DHT22;4316;53.840;10.762;2023-02-24T13:32:43;6.20;99.90
8557;DHT22;4316;53.840;10.762;2023-02-24T13:37:46;6.40;99.90
8557;DHT22;4316;53.840;10.762;2023-02-24T13:42:42;6.60;99.90
8557;DHT22;4316;53.840;10.762;2023-02-24T13:53:37;6.70;99.90
8557;DHT22;4316;53.840;10.762;2023-02-24T14:01:17;6.80;99.90
8557;DHT22;4316;53.840;10.762;2023-02-24T14:04:04;6.80;99.90
8557;DHT22;4316;53.840;10.762;2023-02-24T14:06:30;6.70;99.90
8557;DHT22;4316;53.840;10.762;2023-02-24T14:08:58;6.70;99.90
8557;DHT22;4316;53.840;10.762;2023-02-24T14:11:27;6.70;99.90
8557;DHT22;4316;53.840;10.762;2023-02-24T14:13:56;6.80;99.90
8557;DHT22;4316;53.840;10.762;2023-02-24T14:16:24;6.80;99.90
8557;DHT22;4316;53.840;10.762;2023-02-24T14:18:53;7.00;99.90
8557;DHT22;4316;53.840;10.762;2023-02-24T14:21:21;7.10;99.90
8557;DHT22;4316;53.840;10.762;2023-02-24T14:24:09;7.20;99.90
8557;DHT22;4316;53.840;10.762;2023-02-24T14:26:57;7.30;99.90
8557;DHT22;4316;53.840;10.762;2023-02-24T14:29:34;7.40;99.90
8557;DHT22;4316;53.840;10.762;2023-02-24T14:32:00;7.50;99.90
8557;DHT22;4316;53.840;10.762;2023-02-24T14:34:28;7.60;99.90
8557;DHT22;4316;53.840;10.762;2023-02-24T14:37:00;7.60;99.90
8557;DHT22;4316;53.840;10.762;2023-02-24T14:39:31;7.50;99.90
8557;DHT22;4316;53.840;10.762;2023-02-24T14:42:23;7.50;99.90
8557;DHT22;4316;53.840;10.762;2023-02-24T14:44:55;7.50;99.90
8557;DHT22;4316;53.840;10.762;2023-02-24T14:47:25;7.60;99.90
8557;DHT22;4316;53.840;10.762;2023-02-24T14:55:02;7.60;99.90
8557;DHT22;4316;53.840;10.762;2023-02-24T14:57:34;7.60;99.90
8557;DHT22;4316;53.840;10.762;2023-02-24T15:03:17;7.50;99.90
8557;DHT22;4316;53.840;10.762;2023-02-24T15:05:48;7.50;99.90
8557;DHT22;4316;53.840;10.762;2023-02-24T15:16:23;7.50;99.90
8557;DHT22;4316;53.840;10.762;2023-02-24T15:18:52;7.50;99.90
8557;DHT22;4316;53.840;10.762;2023-02-24T15:21:31;7.50;99.90
8557;DHT22;4316;53.840;10.762;2023-02-24T15:24:02;7.50;99.90
8557;DHT22;4316;53.840;10.762;2023-02-24T15:26:31;7.50;99.90
8557;DHT22;4316;53.840;10.762;2023-02-24T15:29:00;7.50;99.90
8557;DHT22;4316;53.840;10.762;2023-02-24T15:31:26;7.50;99.90
8557;DHT22;4316;53.840;10.762;2023-02-24T15:33:58;7.50;99.90
8557;DHT22;4316;53.840;10.762;2023-02-24T15:36:29;7.50;99.90
8557;DHT22;4316;53.840;10.762;2023-02-24T15:39:07;7.40;99.90
8557;DHT22;4316;53.840;10.762;2023-02-24T15:41:44;7.40;99.90
8557;DHT22;4316;53.840;10.762;2023-02-24T15:44:27;7.40;99.90
8557;DHT22;4316;53.840;10.762;2023-02-24T15:46:55;7.30;99.90
8557;DHT22;4316;53.840;10.762;2023-02-24T15:49:21;7.20;99.90
8557;DHT22;4316;53.840;10.762;2023-02-24T15:51:48;7.10;99.90
8557;DHT22;4316;53.840;10.762;2023-02-24T15:54:22;6.90;99.90
8557;DHT22;4316;53.840;10.762;2023-02-24T15:56:49;7.00;99.90
8557;DHT22;4316;53.840;10.762;2023-02-24T15:59:17;7.00;99.90
8557;DHT22;4316;53.840;10.762;2023-02-24T16:01:46;7.00;99.90
8557;DHT22;4316;53.840;10.762;2023-02-24T16:04:12;6.90;99.90
8557;DHT22;4316;53.840;10.762;2023-02-24T16:06:40;6.90;99.90
8557;DHT22;4316;53.840;10.762;2023-02-24T16:09:12;6.90;99.90
8557;DHT22;4316;53.840;10.762;2023-02-24T16:11:40;6.80;99.90
8557;DHT22;4316;53.840;10.762;2023-02-24T16:14:14;6.90;99.90
8557;DHT22;4316;53.840;10.762;2023-02-24T16:16:41;6.90;99.90
8557;DHT22;4316;53.840;10.762;2023-02-24T16:19:09;6.80;99.90
8557;DHT22;4316;53.840;10.762;2023-02-24T16:21:35;6.80;99.90
8557;DHT22;4316;53.840;10.762;2023-02-24T16:24:00;6.70;99.90
8557;DHT22;4316;53.840;10.762;2023-02-24T16:26:26;6.70;99.90
8557;DHT22;4316;53.840;10.762;2023-02-24T16:28:54;6.70;99.90
8557;DHT22;4316;53.840;10.762;2023-02-24T16:31:21;6.60;99.90
8557;DHT22;4316;53.840;10.762;2023-02-24T16:33:47;6.40;99.90
8557;DHT22;4316;53.840;10.762;2023-02-24T16:36:13;6.50;99.90
8557;DHT22;4316;53.840;10.762;2023-02-24T16:38:40;6.30;99.90
8557;DHT22;4316;53.840;10.762;2023-02-24T16:41:06;6.30;99.90
8557;DHT22;4316;53.840;10.762;2023-02-24T16:43:32;6.30;99.90
8557;DHT22;4316;53.840;10.762;2023-02-24T16:46:01;6.30;99.90
8557;DHT22;4316;53.840;10.762;2023-02-24T16:48:28;6.30;99.90
8557;DHT22;4316;53.840;10.762;2023-02-24T16:50:59;6.30;99.90
8557;DHT22;4316;53.840;10.762;2023-02-24T16:53:25;6.30;99.90
8557;DHT22;4316;53.840;10.762;2023-02-24T16:55:51;6.30;99.90
8557;DHT22;4316;53.840;10.762;2023-02-24T16:58:18;6.30;99.90
8557;DHT22;4316;53.840;10.762;2023-02-24T17:00:46;6.30;99.90
8557;DHT22;4316;53.840;10.762;2023-02-24T17:03:24;6.30;99.90
8557;DHT22;4316;53.840;10.762;2023-02-24T17:05:51;6.30;99.90
8557;DHT22;4316;53.840;10.762;2023-02-24T17:08:16;6.40;99.90
8557;DHT22;4316;53.840;10.762;2023-02-24T17:10:43;6.30;99.90
8557;DHT22;4316;53.840;10.762;2023-02-24T17:13:14;6.30;99.90
8557;DHT22;4316;53.840;10.762;2023-02-24T17:15:41;6.30;99.90
8557;DHT22;4316;53.840;10.762;2023-02-24T17:18:07;6.30;99.90
8557;DHT22;4316;53.840;10.762;2023-02-24T17:20:34;6.20;99.90
8557;DHT22;4316;53.840;10.762;2023-02-24T17:23:00;6.20;99.90
8557;DHT22;4316;53.840;10.762;2023-02-24T17:25:28;6.20;99.90
8557;DHT22;4316;53.840;10.762;2023-02-24T17:27:54;6.20;99.90
8557;DHT22;4316;53.840;10.762;2023-02-24T17:30:26;6.20;99.90
8557;DHT22;4316;53.840;10.762;2023-02-24T17:32:54;6.20;99.90
8557;DHT22;4316;53.840;10.762;2023-02-24T17:35:19;6.20;99.90
8557;DHT22;4316;53.840;10.762;2023-02-24T17:37:45;6.20;99.90
8557;DHT22;4316;53.840;10.762;2023-02-24T17:40:12;6.20;99.90
8557;DHT22;4316;53.840;10.762;2023-02-24T17:42:38;6.20;99.90
8557;DHT22;4316;53.840;10.762;2023-02-24T17:45:05;6.20;99.90
8557;DHT22;4316;53.840;10.762;2023-02-24T17:47:32;6.40;99.90
8557;DHT22;4316;53.840;10.762;2023-02-24T17:49:59;6.10;99.90
8557;DHT22;4316;53.840;10.762;2023-02-24T17:52:25;6.10;99.90
8557;DHT22;4316;53.840;10.762;2023-02-24T17:54:50;6.00;99.90
8557;DHT22;4316;53.840;10.762;2023-02-24T17:57:16;6.00;99.90
8557;DHT22;4316;53.840;10.762;2023-02-24T17:59:42;5.90;99.90
8557;DHT22;4316;53.840;10.762;2023-02-24T18:02:11;5.90;99.90
8557;DHT22;4316;53.840;10.762;2023-02-24T18:04:38;5.90;99.90
8557;DHT22;4316;53.840;10.762;2023-02-24T18:07:05;5.90;99.90
8557;DHT22;4316;53.840;10.762;2023-02-24T18:09:30;5.80;99.90
8557;DHT22;4316;53.840;10.762;2023-02-24T18:11:56;5.80;99.90
8557;DHT22;4316;53.840;10.762;2023-02-24T18:14:22;5.70;99.90
8557;DHT22;4316;53.840;10.762;2023-02-24T18:16:48;6.00;99.90
8557;DHT22;4316;53.840;10.762;2023-02-24T18:19:13;5.70;99.90
8557;DHT22;4316;53.840;10.762;2023-02-24T18:21:39;5.70;99.90
8557;DHT22;4316;53.840;10.762;2023-02-24T18:24:05;5.70;99.90
8557;DHT22;4316;53.840;10.762;2023-02-24T18:26:31;5.70;99.90
8557;DHT22;4316;53.840;10.762;2023-02-24T18:28:58;5.60;99.90
8557;DHT22;4316;53.840;10.762;2023-02-24T18:31:26;5.70;99.90
8557;DHT22;4316;53.840;10.762;2023-02-24T18:33:54;5.70;99.90
8557;DHT22;4316;53.840;10.762;2023-02-24T18:36:21;5.70;99.90
8557;DHT22;4316;53.840;10.762;2023-02-24T18:38:47;5.70;99.90
8557;DHT22;4316;53.840;10.762;2023-02-24T18:41:16;5.70;99.90
8557;DHT22;4316;53.840;10.762;2023-02-24T18:43:45;5.70;99.90
8557;DHT22;4316;53.840;10.762;2023-02-24T18:46:13;5.60;99.90
8557;DHT22;4316;53.840;10.762;2023-02-24T18:48:40;5.70;99.90
8557;DHT22;4316;53.840;10.762;2023-02-24T18:51:09;5.70;99.90
8557;DHT22;4316;53.840;10.762;2023-02-24T18:53:36;5.60;99.90
8557;DHT22;4316;53.840;10.762;2023-02-24T18:56:11;5.60;99.90
8557;DHT22;4316;53.840;10.762;2023-02-24T18:58:37;5.60;99.90
8557;DHT22;4316;53.840;10.762;2023-02-24T19:03:40;5.60;99.90
8557;DHT22;4316;53.840;10.762;2023-02-24T19:06:08;5.60;99.90
8557;DHT22;4316;53.840;10.762;2023-02-24T19:08:34;5.60;99.90
8557;DHT22;4316;53.840;10.762;2023-02-24T19:11:07;5.50;99.90